LEJR Airport Information

Runway Information
Runway 02 Length 7546 ft width 148 ft
Elevation 68 ft Threshold 0 ft Heading 21
Runway 20 Length 7546 ft Width 148 ft
Elevation 93 ft Threshold 0 ft Heading 201
Airport Frequencies
Type APP Name APP Frequency 128.5 MHZ
Type GND Name GND Frequency 121.6 MHZ
Type TWR Name TWR Frequency 118.55 MHZ
Airport Navaids
Type NDB Name Jerez Frequency 433 KHZ
Type VOR-DME Name Jerez Frequency 113000 KHZ
Airport Weather Information & NOTAM
ADDS - METARS form results

(0957 UTC 15 December 2018)
Data provider http://aviationweather.gov/metar/data/
 
METAR text: LEJR 150930Z VRB01KT CAVOK 10/09 Q1030
Conditions at: LEJR (JEREZ (CIV/MIL) , ES) observed 0930 UTC 15 December 2018
Temperature: 10.0°C (50°F)
Dewpoint: 9.0°C (48°F) [RH = 93%]
Pressure (altimeter): 30.41 inches Hg (1030.0 mb)
Winds: variable direction winds at 1 MPH (1 knots; 0.5 m/s)
Visibility: 6 or more miles (10+ km)
Ceiling: ceiling and visibility are OK
Clouds: unknown
Weather: no significant weather observed at this time

METAR text: LEJR 150900Z 00000KT CAVOK 07/07 Q1030
Conditions at: LEJR (JEREZ (CIV/MIL) , ES) observed 0900 UTC 15 December 2018
Temperature: 7.0°C (45°F)
Dewpoint: 7.0°C (45°F) [RH = 100%]
Pressure (altimeter): 30.41 inches Hg (1030.0 mb)
Winds: calm
Visibility: 6 or more miles (10+ km)
Ceiling: ceiling and visibility are OK
Clouds: unknown
Weather: no significant weather observed at this time

Forecast for: LEJR (JEREZ (CIV/MIL) , ES)
Text: TAF LEJR 150500Z 1506/1606 01004KT CAVOK TX17/1515Z TN04/1507Z
Forecast period: 0600 UTC 15 December 2018 to 0600 UTC 16 December 2018
Forecast type: FROM: standard forecast or significant change
Winds: from the N (10 degrees) at 5 MPH (4 knots; 2.1 m/s)
Visibility: 6 or more miles 10+ km)
Ceiling: unknown
Clouds: missing
Weather: no significant weather forecast for this period